Portada
METAR-TAF:

METAR-TAF

Aeroports :

Derby, Austràlia

latitud: 17-22-12S, longitud: 123-39-38E, altitud: 7 m

Observació

L'informe es va fer fa 23 minuts, a les 03:00 UTC
Vent 16 kt del Nord/Nord-Oest
Temperatura 32°C
Humitat 67%
Pressió 1008 hPa
Núvols disperses a una alçada de 3600 ft
Cel ennuvolat a una alçada de 4300 ft
Cel ennuvolat a una alçada de 4900 ft

METAR: YDBY 210300Z AUTO 33016KT //// // SCT036 BKN043 BKN049 32/25 Q1008

Hora: 11:23 (03:23 UTC)


TAF: manca

Observacions i pronòstics meteorològics de més de 4000 aeroports (METAR i TAF).

Les estacions disponibles són els punts grocs i vermells al mapa.

Posi el ratolí al punt desitjat per veure el nom de l'estació.

Feu clic per veure les observacions i els pronòstics meteorològics.

Per canviar el mapa: feu clic els botons verds amb una creu de color negre per apropar; al botó verd amb un guió per allunyar la imatge; o en les fletxes verdes per a mapes adjacents.


METAR-TAF: